Time;durP1;ratioP1;P1;durP2;ratioP2;P2;SDS_P1;SDS_P2;PMS_P1;PMS_P2;Temp;Humidity;BMP_temperature;BMP_pressure;BME280_temperature;BME280_humidity;BME280_pressure;Samples;Min_cycle;Max_cycle;Signal;HPM_P1;HPM_P2
2022/08/25 00:01:26;;;;;;;9.32;6.90;;;;;;;17.48;86.97;101406.53;10430628;28;20389;-77
2022/08/25 00:06:27;;;;;;;9.15;7.55;;;;;;;17.42;87.59;101406.34;10441677;28;20120;-77
2022/08/25 00:11:30;;;;;;;6.78;5.93;;;;;;;17.34;87.91;101402.59;10487220;28;20388;-77
2022/08/25 00:16:31;;;;;;;10.88;6.85;;;;;;;17.22;88.65;101416.38;10454512;28;20111;-77
2022/08/25 00:21:31;;;;;;;7.05;6.30;;;;;;;17.12;89.08;101409.91;10467115;28;20065;-77
2022/08/25 00:26:32;;;;;;;7.68;6.30;;;;;;;17.12;89.53;101409.91;10470963;28;20086;-78
2022/08/25 00:31:33;;;;;;;8.85;6.15;;;;;;;17.03;89.37;101414.06;10445083;28;20033;-77
2022/08/25 00:36:33;;;;;;;9.32;8.32;;;;;;;16.97;89.48;101415.66;10446222;28;20041;-77
2022/08/25 00:41:34;;;;;;;8.98;7.80;;;;;;;16.83;90.16;101412.53;10468092;28;20079;-77
2022/08/25 00:46:41;;;;;;;8.27;7.22;;;;;;;16.74;90.77;101416.69;10426711;28;20119;-77
2022/08/25 00:51:59;;;;;;;8.13;7.32;;;;;;;16.69;91.44;101420.94;10442695;28;20086;-77
2022/08/25 00:56:59;;;;;;;13.77;7.40;;;;;;;16.64;92.52;101425.19;10434784;28;20037;-77
2022/08/25 01:02:00;;;;;;;12.55;8.25;;;;;;;16.55;92.99;101425.81;10449408;28;20044;-76
2022/08/25 01:07:01;;;;;;;8.40;7.25;;;;;;;16.47;93.29;101426.41;10460075;28;20037;-77
2022/08/25 01:12:01;;;;;;;7.97;7.15;;;;;;;16.38;93.59;101424.38;10424381;28;20041;-76
2022/08/25 01:17:02;;;;;;;15.85;8.73;;;;;;;16.34;94.18;101430.41;10445772;28;20048;-76
2022/08/25 01:22:04;;;;;;;12.65;9.13;;;;;;;16.26;94.57;101422.19;10450714;28;20038;-77
2022/08/25 01:27:05;;;;;;;12.25;8.05;;;;;;;16.21;96.20;101414.16;10433485;28;20041;-77
2022/08/25 01:32:07;;;;;;;15.70;9.18;;;;;;;16.20;97.20;101425.56;10457939;28;20071;-77
2022/08/25 01:37:09;;;;;;;9.75;7.90;;;;;;;16.23;96.15;101430.03;10465281;28;20124;-77
2022/08/25 01:42:18;;;;;;;12.77;8.07;;;;;;;16.29;94.86;101424.94;10480363;28;20043;-77
2022/08/25 01:47:19;;;;;;;13.05;7.65;;;;;;;16.32;93.71;101425.03;10411266;28;20120;-77
2022/08/25 01:52:33;;;;;;;9.00;8.10;;;;;;;16.27;93.90;101417.00;10432820;28;20051;-76
2022/08/25 01:57:34;;;;;;;10.55;8.90;;;;;;;16.26;94.68;101420.47;10465208;28;20033;-77
2022/08/25 02:02:34;;;;;;;12.65;8.10;;;;;;;16.14;94.90;101431.50;10446010;28;20064;-76
2022/08/25 02:07:35;;;;;;;8.80;7.90;;;;;;;15.99;95.09;101444.19;10441220;28;20496;-77
2022/08/25 02:12:36;;;;;;;11.65;8.07;;;;;;;15.85;95.40;101431.38;10436846;28;20041;-77
2022/08/25 02:17:37;;;;;;;10.40;9.32;;;;;;;15.81;95.92;101426.84;10462230;28;20403;-77
2022/08/25 02:22:38;;;;;;;9.20;8.38;;;;;;;15.73;95.93;101430.94;10443980;28;20194;-77
2022/08/25 02:27:38;;;;;;;11.45;9.30;;;;;;;15.64;96.16;101423.63;10440027;28;20082;-77
2022/08/25 02:32:39;;;;;;;9.68;8.05;;;;;;;15.62;97.03;101420.03;10438426;28;20611;-77
2022/08/25 02:37:39;;;;;;;10.82;9.45;;;;;;;15.60;97.15;101426.06;10448711;28;20041;-76
2022/08/25 02:42:40;;;;;;;11.18;8.15;;;;;;;15.54;97.14;101425.00;10437406;28;20037;-77
2022/08/25 02:47:40;;;;;;;13.07;10.93;;;;;;;15.47;97.02;101416.84;10470651;28;20037;-76
2022/08/25 02:52:41;;;;;;;13.52;11.13;;;;;;;15.41;96.48;101404.31;10444812;28;20033;-77
2022/08/25 02:57:42;;;;;;;10.50;9.35;;;;;;;15.35;96.38;101406.72;10441444;28;20064;-76
2022/08/25 03:02:42;;;;;;;15.05;9.55;;;;;;;15.26;96.70;101409.94;10466938;28;20043;-77
2022/08/25 03:07:43;;;;;;;10.95;8.23;;;;;;;15.17;96.87;101406.94;10465450;28;20044;-76
2022/08/25 03:12:44;;;;;;;12.30;10.23;;;;;;;15.09;96.95;101402.28;10477024;28;20033;-77
2022/08/25 03:17:44;;;;;;;13.63;10.57;;;;;;;15.05;97.42;101405.66;10430210;28;20069;-77
2022/08/25 03:22:45;;;;;;;15.27;9.25;;;;;;;15.00;97.91;101403.66;10438184;28;20386;-77
2022/08/25 03:27:48;;;;;;;11.25;9.32;;;;;;;14.95;98.59;101398.22;10406462;28;20532;-76
2022/08/25 03:32:48;;;;;;;11.75;9.85;;;;;;;14.98;99.09;101393.06;10475574;28;20089;-77
2022/08/25 03:37:50;;;;;;;14.88;10.45;;;;;;;15.10;100.00;101390.91;10488527;28;20473;-76
2022/08/25 03:42:50;;;;;;;13.48;8.77;;;;;;;15.18;99.90;101385.91;10457616;28;20036;-76
2022/08/25 03:47:51;;;;;;;12.43;9.10;;;;;;;15.13;100.00;101384.81;10488602;28;20059;-77
2022/08/25 03:52:53;;;;;;;11.77;10.52;;;;;;;15.09;99.43;101375.00;10456102;28;20102;-76
2022/08/25 03:57:53;;;;;;;15.95;8.57;;;;;;;15.03;99.89;101375.69;10474386;28;20035;-76
2022/08/25 04:02:54;;;;;;;12.00;8.55;;;;;;;15.01;99.48;101374.75;10471718;28;20032;-77
2022/08/25 04:07:54;;;;;;;9.75;8.75;;;;;;;14.99;99.21;101368.50;10453134;28;20052;-77
2022/08/25 04:12:55;;;;;;;8.93;8.02;;;;;;;15.01;99.23;101364.19;10444485;28;20431;-76
2022/08/25 04:17:57;;;;;;;10.55;9.45;;;;;;;14.97;99.60;101368.44;10475183;28;20123;-77
2022/08/25 04:23:00;;;;;;;15.63;9.57;;;;;;;14.98;99.75;101364.09;10456529;28;20485;-77
2022/08/25 04:28:00;;;;;;;9.23;7.30;;;;;;;14.93;99.22;101365.66;10443368;28;20117;-78
2022/08/25 04:33:01;;;;;;;14.63;9.45;;;;;;;14.88;98.44;101369.84;10443433;28;20045;-77
2022/08/25 04:38:01;;;;;;;11.13;8.93;;;;;;;14.81;97.76;101372.25;10445315;28;20148;-78
2022/08/25 04:43:02;;;;;;;12.27;8.38;;;;;;;14.80;97.29;101364.25;10416897;28;20042;-79
2022/08/25 04:48:03;;;;;;;13.45;8.75;;;;;;;14.87;96.78;101363.66;10422634;28;20048;-77
2022/08/25 04:53:03;;;;;;;9.23;7.50;;;;;;;14.93;96.31;101361.25;10430979;28;20485;-76
2022/08/25 04:58:04;;;;;;;16.35;8.52;;;;;;;15.12;97.75;101356.66;10450857;28;20158;-77
2022/08/25 05:03:04;;;;;;;8.90;7.35;;;;;;;15.10;97.21;101354.00;10447594;28;20398;-77
2022/08/25 05:08:05;;;;;;;8.38;6.65;;;;;;;15.15;94.74;101351.50;10425066;28;20047;-77
2022/08/25 05:13:05;;;;;;;13.25;8.38;;;;;;;15.21;93.75;101343.81;10456326;28;20033;-77
2022/08/25 05:18:06;;;;;;;9.95;7.40;;;;;;;15.21;94.36;101332.41;10447198;28;20056;-78
2022/08/25 05:23:06;;;;;;;13.02;10.05;;;;;;;15.22;94.58;101344.75;10435375;28;20047;-77
2022/08/25 05:28:07;;;;;;;9.25;7.65;;;;;;;15.30;94.44;101350.28;10400371;28;20069;-78
2022/08/25 05:33:08;;;;;;;9.70;8.50;;;;;;;15.37;94.56;101358.47;10452814;28;20033;-78
2022/08/25 05:38:09;;;;;;;18.83;8.50;;;;;;;15.47;94.51;101367.59;10448216;28;20502;-78
2022/08/25 05:43:11;;;;;;;12.93;9.15;;;;;;;15.62;93.18;101368.97;10473756;28;20143;-81
2022/08/25 05:48:11;;;;;;;9.43;5.60;;;;;;;15.81;90.73;101366.13;10441457;28;20052;-76
2022/08/25 05:53:12;;;;;;;17.85;7.40;;;;;;;16.06;88.89;101374.03;10442458;28;20063;-78
2022/08/25 05:58:12;;;;;;;8.13;5.90;;;;;;;16.32;88.71;101380.16;10436633;28;21227;-76
2022/08/25 06:03:13;;;;;;;8.40;6.13;;;;;;;16.61;87.68;101366.97;10453218;28;20041;-76
2022/08/25 06:08:14;;;;;;;11.65;6.13;;;;;;;17.56;87.06;101367.06;10461655;28;20037;-77
2022/08/25 06:13:15;;;;;;;12.45;5.78;;;;;;;19.65;78.78;101362.94;10423328;28;20064;-77
2022/08/25 06:18:15;;;;;;;11.05;4.60;;;;;;;;;;10463708;28;20120;-77
2022/08/25 06:23:17;;;;;;;10.70;4.97;;;;;;;23.78;59.66;101358.00;10480414;28;20046;-77
2022/08/25 06:28:18;;;;;;;9.02;4.50;;;;;;;25.17;54.10;101360.41;10449448;28;20033;-78
2022/08/25 06:33:19;;;;;;;9.30;4.20;;;;;;;25.98;53.37;101359.00;10458845;28;20492;-77
2022/08/25 06:38:19;;;;;;;8.77;4.57;;;;;;;26.82;50.46;101356.34;10475520;28;20812;-77
2022/08/25 06:43:20;;;;;;;13.17;4.20;;;;;;;27.39;48.05;101362.78;10448347;28;20121;-75
2022/08/25 06:48:22;;;;;;;11.38;3.78;;;;;;;27.95;46.16;101353.84;10464119;28;20048;-75
2022/08/25 06:53:23;;;;;;;9.45;4.78;;;;;;;28.88;43.98;101351.28;10447588;28;20127;-75
2022/08/25 06:58:23;;;;;;;;;;;;;;;29.43;40.06;101344.66;10433603;28;20505;-76
2022/08/25 07:03:24;;;;;;;7.57;3.77;;;;;;;30.13;41.06;101348.31;10464376;28;19924;-74
2022/08/25 07:08:25;;;;;;;16.73;4.90;;;;;;;30.61;36.47;101354.25;10434398;28;20118;-75
2022/08/25 07:13:26;;;;;;;9.20;3.72;;;;;;;31.26;38.96;101349.63;10451676;28;20156;-75
2022/08/25 07:18:26;;;;;;;9.30;4.03;;;;;;;31.46;39.11;101338.19;10407195;28;20065;-75
2022/08/25 07:23:27;;;;;;;8.60;3.88;;;;;;;31.87;35.17;101339.59;10418033;28;20076;-74
2022/08/25 07:28:27;;;;;;;9.73;5.22;;;;;;;32.05;35.08;101330.81;10395922;28;20061;-74
2022/08/25 07:33:28;;;;;;;9.05;3.75;;;;;;;32.92;33.33;101332.19;10401285;28;20223;-75
2022/08/25 07:38:28;;;;;;;10.48;4.50;;;;;;;33.68;33.64;101326.47;10393024;28;20089;-75
2022/08/25 07:43:29;;;;;;;12.18;4.47;;;;;;;34.24;28.68;101319.50;10438793;28;20041;-75
2022/08/25 07:48:29;;;;;;;10.35;3.90;;;;;;;34.30;29.23;101312.94;10431469;28;20503;-75
2022/08/25 07:53:30;;;;;;;11.82;4.28;;;;;;;34.22;29.11;101315.97;10380145;28;20083;-74
2022/08/25 07:58:30;;;;;;;5.15;2.95;;;;;;;34.43;28.44;101318.66;10398357;28;20038;-75
2022/08/25 08:03:55;;;;;;;8.52;3.38;;;;;;;34.51;28.45;101329.22;10398692;28;20097;-75
2022/08/25 08:08:55;;;;;;;12.10;4.18;;;;;;;35.08;27.81;101322.97;10430060;28;20038;-74
2022/08/25 08:13:56;;;;;;;10.38;4.50;;;;;;;34.71;27.90;101306.53;10438450;28;20078;-75
2022/08/25 08:18:57;;;;;;;9.40;4.53;;;;;;;34.73;30.54;101303.75;10482986;28;20029;-76
2022/08/25 08:23:58;;;;;;;8.02;4.43;;;;;;;36.12;28.54;101293.25;10414659;28;20041;-74
2022/08/25 08:28:59;;;;;;;7.03;4.47;;;;;;;36.05;26.33;101286.38;10401468;28;20112;-75
2022/08/25 08:34:00;;;;;;;6.70;3.00;;;;;;;36.99;25.31;101292.13;10417339;28;20040;-75
2022/08/25 08:39:00;;;;;;;8.63;3.17;;;;;;;37.20;24.24;101291.84;10434447;28;20520;-76
2022/08/25 08:44:28;;;;;;;10.25;4.15;;;;;;;36.40;25.28;101287.19;10403285;28;20422;-75
2022/08/25 08:49:33;;;;;;;5.40;3.60;;;;;;;37.54;24.89;101283.53;10452000;28;20947;-76
2022/08/25 08:54:35;;;;;;;7.30;3.30;;;;;;;37.24;23.48;101290.72;10441522;28;20037;-75
2022/08/25 08:59:50;;;;;;;7.93;3.28;;;;;;;37.88;23.69;101301.47;10464301;28;20125;-76
2022/08/25 09:04:54;;;;;;;5.18;2.72;;;;;;;38.07;23.65;101296.75;10453037;28;20039;-76
2022/08/25 09:09:55;;;;;;;13.77;4.13;;;;;;;37.50;23.80;101295.59;10425133;28;20052;-76
2022/08/25 09:15:14;;;;;;;8.18;4.00;;;;;;;37.59;23.76;101295.03;10435514;28;20396;-77
2022/08/25 09:20:24;;;;;;;9.23;3.45;;;;;;;37.57;24.79;101288.81;10413353;28;20108;-75
2022/08/25 09:25:59;;;;;;;7.20;3.47;;;;;;;38.40;22.60;101292.84;10399368;28;20556;-75
2022/08/25 09:31:08;;;;;;;8.60;3.00;;;;;;;37.97;22.75;101288.25;10477465;28;20041;-76
2022/08/25 09:36:08;;;;;;;7.28;4.22;;;;;;;37.79;24.02;101285.66;10455648;28;20065;-75
2022/08/25 09:41:10;;;;;;;10.25;4.25;;;;;;;37.74;24.06;101285.94;10441212;28;20037;-75
2022/08/25 09:46:12;;;;;;;19.55;4.55;;;;;;;38.72;23.09;101288.09;10444331;28;20051;-75
2022/08/25 09:51:16;;;;;;;6.47;3.60;;;;;;;39.53;22.75;101277.31;10439101;28;20140;-76
2022/08/25 09:56:20;;;;;;;8.00;3.88;;;;;;;39.35;21.39;101279.44;10441851;28;20040;-78
2022/08/25 10:01:21;;;;;;;11.32;4.53;;;;;;;38.95;21.98;101274.78;10423784;28;20037;-77
2022/08/25 10:06:22;;;;;;;4.43;3.53;;;;;;;38.52;21.42;101270.22;10421835;28;20576;-77
2022/08/25 10:11:43;;;;;;;7.95;3.45;;;;;;;38.64;21.72;101268.56;10438168;28;20044;-77
2022/08/25 10:16:43;;;;;;;8.75;3.75;;;;;;;38.67;21.96;101262.00;10444553;28;20047;-77
2022/08/25 10:21:44;;;;;;;12.82;4.32;;;;;;;39.45;21.61;101246.84;10439071;28;20025;-77
2022/08/25 10:26:54;;;;;;;4.28;3.38;;;;;;;38.61;21.58;101249.63;10435677;28;20036;-77
2022/08/25 10:32:24;;;;;;;6.32;3.00;;;;;;;37.22;24.90;101245.38;10427962;28;20037;-76
2022/08/25 10:37:53;;;;;;;8.85;4.05;;;;;;;37.52;23.37;101236.34;10398986;28;20090;-79
2022/08/25 10:43:01;;;;;;;3.92;2.78;;;;;;;37.89;23.59;101220.41;10435632;28;20045;-80
2022/08/25 10:48:20;;;;;;;10.52;5.18;;;;;;;38.81;21.33;101217.34;10425754;28;20044;-78
2022/08/25 10:53:34;;;;;;;7.38;3.70;;;;;;;37.68;22.69;101214.44;10406148;28;20404;-77
2022/08/25 10:59:15;;;;;;;7.55;4.25;;;;;;;38.84;22.31;101196.13;10457270;28;20063;-76
2022/08/25 11:04:20;;;;;;;16.08;6.05;;;;;;;39.01;22.07;101202.34;10440921;28;20508;-75
2022/08/25 11:09:40;;;;;;;13.52;5.03;;;;;;;39.40;21.12;101195.16;10430174;28;20118;-76
2022/08/25 11:14:49;;;;;;;21.33;8.23;;;;;;;39.54;20.55;101198.78;10420009;28;20373;-77
2022/08/25 11:19:56;;;;;;;4.18;3.13;;;;;;;39.59;20.48;101193.84;10410387;28;20033;-77
2022/08/25 11:25:00;;;;;;;7.22;3.30;;;;;;;39.31;20.63;101188.44;10429118;28;20576;-76
2022/08/25 11:30:15;;;;;;;8.50;3.70;;;;;;;38.89;21.67;101194.00;10443756;28;20041;-77
2022/08/25 11:35:27;;;;;;;6.28;3.25;;;;;;;39.61;21.26;101189.13;10445285;28;20151;-77
2022/08/25 11:40:40;;;;;;;17.60;3.55;;;;;;;39.33;20.82;101177.34;10430270;28;20112;-76
2022/08/25 11:45:52;;;;;;;5.28;3.13;;;;;;;38.94;20.23;101169.09;10423413;28;20425;-78
2022/08/25 11:50:57;;;;;;;7.35;3.75;;;;;;;39.37;19.88;101159.78;10423426;28;20037;-77
2022/08/25 11:56:22;;;;;;;5.95;3.25;;;;;;;39.52;18.45;101146.00;10442952;28;20044;-77
2022/08/25 12:01:38;;;;;;;5.70;3.75;;;;;;;39.56;19.53;101142.94;10442818;28;20405;-77
2022/08/25 12:07:18;;;;;;;5.68;2.97;;;;;;;40.03;19.83;101143.22;10445310;28;20033;-77
2022/08/25 12:12:54;;;;;;;6.20;3.40;;;;;;;39.98;18.62;101139.94;10445619;28;20405;-76
2022/08/25 12:18:15;;;;;;;6.40;3.00;;;;;;;39.59;18.91;101139.09;10420208;28;20045;-77
2022/08/25 12:23:15;;;;;;;4.57;3.08;;;;;;;38.68;18.29;101138.00;10451754;28;20033;-77
2022/08/25 12:28:40;;;;;;;6.93;3.90;;;;;;;39.30;19.21;101134.69;10437501;28;20532;-76
2022/08/25 12:34:19;;;;;;;4.95;3.20;;;;;;;39.47;18.84;101135.38;10427213;28;20495;-77
2022/08/25 12:39:34;;;;;;;8.68;2.58;;;;;;;39.67;19.85;101125.72;10433460;28;20045;-77
2022/08/25 12:44:39;;;;;;;7.68;3.20;;;;;;;39.56;17.24;101131.97;10404717;28;20032;-77
2022/08/25 12:49:42;;;;;;;5.10;2.55;;;;;;;40.25;18.97;101124.38;10443822;28;20087;-76
2022/08/25 12:54:55;;;;;;;4.97;2.53;;;;;;;40.54;16.36;101124.03;10442044;28;20033;-78
2022/08/25 12:59:57;;;;;;;7.90;2.83;;;;;;;40.33;17.08;101122.78;10405473;28;20048;-78
2022/08/25 13:04:57;;;;;;;5.40;2.47;;;;;;;40.51;17.77;101112.31;10417734;28;20036;-79
2022/08/25 13:10:26;;;;;;;6.43;3.63;;;;;;;40.75;16.37;101114.19;10440071;28;20052;-78
2022/08/25 13:15:36;;;;;;;4.80;2.30;;;;;;;40.81;16.65;101102.75;10439246;28;20481;-78
2022/08/25 13:20:37;;;;;;;6.57;3.05;;;;;;;40.62;17.02;101095.03;10414602;28;20393;-78
2022/08/25 13:25:46;;;;;;;3.13;1.95;;;;;;;40.70;17.31;101079.88;10426916;28;20033;-78
2022/08/25 13:30:55;;;;;;;3.63;2.70;;;;;;;40.33;16.04;101086.28;10439585;28;20040;-77
2022/08/25 13:41:22;;;;;;;3.85;2.33;;;;;;;40.12;16.76;101058.59;10442560;28;20065;-78
2022/08/25 13:46:23;;;;;;;7.60;3.40;;;;;;;39.94;17.61;101061.72;10422562;28;20032;-77
2022/08/25 13:51:25;;;;;;;4.50;2.53;;;;;;;40.57;16.55;101058.84;10423618;28;20401;-79
2022/08/25 13:56:34;;;;;;;4.15;2.20;;;;;;;39.88;17.23;101059.44;10417877;28;20464;-78
2022/08/25 14:01:42;;;;;;;7.78;3.03;;;;;;;39.57;16.87;101050.72;10414592;28;20064;-78
2022/08/25 14:06:43;;;;;;;7.88;3.83;;;;;;;39.86;17.14;101048.63;10470495;28;20086;-75
2022/08/25 14:11:55;;;;;;;8.20;7.00;;;;;;;40.36;16.61;101047.69;10456323;28;20131;-76
2022/08/25 14:17:00;;;;;;;4.95;2.92;;;;;;;39.63;17.09;101037.47;10425908;28;20052;-76
2022/08/25 14:22:01;;;;;;;10.43;6.18;;;;;;;39.65;17.33;101040.06;10447549;28;20041;-75
2022/08/25 14:27:01;;;;;;;5.57;3.72;;;;;;;39.97;16.81;101034.09;10433805;28;20116;-75
2022/08/25 14:32:03;;;;;;;6.30;5.47;;;;;;;39.39;17.72;101028.31;10397794;28;20037;-75
2022/08/25 14:37:15;;;;;;;5.40;2.75;;;;;;;38.61;17.73;101026.31;10413092;28;20405;-76
2022/08/25 14:42:17;;;;;;;11.88;10.65;;;;;;;39.46;17.98;101025.00;10422506;28;20090;-76
2022/08/25 14:47:19;;;;;;;8.80;6.40;;;;;;;39.88;16.21;101026.56;10450133;28;20090;-76
2022/08/25 14:52:21;;;;;;;3.75;2.58;;;;;;;38.92;17.59;101026.09;10445664;28;20041;-77
2022/08/25 14:57:22;;;;;;;3.70;2.50;;;;;;;38.27;17.80;101014.91;10437863;28;20114;-76
2022/08/25 15:02:23;;;;;;;19.58;14.32;;;;;;;38.12;20.68;101019.56;10464171;28;20098;-76
2022/08/25 15:12:42;;;;;;;5.05;2.25;;;;;;;37.22;20.50;101010.75;10391034;28;20076;-76
2022/08/25 15:17:43;;;;;;;7.28;3.08;;;;;;;37.21;20.64;101014.47;10413875;28;20109;-76
2022/08/25 15:22:44;;;;;;;8.75;2.58;;;;;;;37.55;20.02;101017.78;10395800;28;20871;-76
2022/08/25 15:27:45;;;;;;;16.88;5.15;;;;;;;36.55;22.38;101012.06;10409461;28;20109;-76
2022/08/25 15:32:46;;;;;;;5.40;2.70;;;;;;;35.65;22.67;100998.97;10421808;28;20047;-76
2022/08/25 15:37:47;;;;;;;4.18;2.30;;;;;;;35.17;23.66;101006.13;10415312;28;20047;-76
2022/08/25 15:42:48;;;;;;;3.38;2.45;;;;;;;35.06;22.31;101001.31;10421847;28;20088;-76
2022/08/25 15:47:49;;;;;;;4.43;2.50;;;;;;;35.13;22.81;100994.56;10430955;28;20147;-77
2022/08/25 15:52:50;;;;;;;7.15;3.55;;;;;;;34.45;22.26;100998.91;10401564;28;20374;-77
2022/08/25 15:57:50;;;;;;;3.03;2.20;;;;;;;33.00;26.85;100995.81;10414205;28;20480;-78
2022/08/25 16:02:51;;;;;;;;;;;;;;;32.16;26.44;101000.16;10408976;28;20211;-77
2022/08/25 16:07:52;;;;;;;5.40;2.50;;;;;;;31.59;32.95;100997.00;10479864;28;19925;-77
2022/08/25 16:12:52;;;;;;;5.30;2.65;;;;;;;31.23;27.47;100992.03;10445377;28;20079;-77
2022/08/25 16:17:53;;;;;;;4.82;2.85;;;;;;;31.14;28.10;100991.41;10462289;28;20090;-77
2022/08/25 16:22:53;;;;;;;6.32;2.58;;;;;;;30.79;35.21;100987.25;10461046;28;20720;-77
2022/08/25 16:27:54;;;;;;;5.88;2.92;;;;;;;30.43;32.11;100986.63;10477714;28;20061;-77
2022/08/25 16:32:54;;;;;;;3.83;2.40;;;;;;;30.21;33.06;100988.28;10477383;28;20421;-78
2022/08/25 16:37:55;;;;;;;7.78;2.80;;;;;;;30.05;34.18;100975.28;10476513;28;20041;-78
2022/08/25 16:42:56;;;;;;;4.03;2.37;;;;;;;29.76;36.47;100984.28;10444978;28;20033;-78
2022/08/25 16:47:56;;;;;;;4.07;2.60;;;;;;;29.46;37.82;100987.84;10427868;28;20047;-78
2022/08/25 16:58:16;;;;;;;7.75;3.42;;;;;;;28.89;39.60;100984.94;10445202;28;20033;-77
2022/08/25 17:03:16;;;;;;;4.03;2.30;;;;;;;28.60;40.37;100988.38;10460332;28;20051;-78
2022/08/25 17:08:29;;;;;;;6.67;2.47;;;;;;;28.31;43.18;100981.91;10445184;28;20044;-77
2022/08/25 17:13:30;;;;;;;8.05;2.75;;;;;;;28.09;40.79;100983.28;10442785;28;20511;-77
2022/08/25 17:18:31;;;;;;;5.10;2.97;;;;;;;27.79;39.97;100987.56;10444531;28;20040;-77
2022/08/25 17:23:31;;;;;;;8.40;3.03;;;;;;;27.47;43.09;100981.94;10443422;28;20091;-77
2022/08/25 17:28:32;;;;;;;5.63;2.97;;;;;;;27.07;42.97;100982.75;10441754;28;20428;-78
2022/08/25 17:33:32;;;;;;;5.07;2.90;;;;;;;26.68;44.08;100986.97;10475346;28;20124;-77
2022/08/25 17:38:33;;;;;;;4.63;2.63;;;;;;;26.32;43.52;100984.00;10425693;28;20116;-77
2022/08/25 17:43:35;;;;;;;3.63;2.77;;;;;;;26.01;45.99;100984.47;10442926;28;20056;-78
2022/08/25 17:48:36;;;;;;;4.90;2.80;;;;;;;25.64;46.50;100987.66;10424417;28;20493;-78
2022/08/25 17:53:37;;;;;;;4.90;3.00;;;;;;;25.30;46.31;100998.75;10475088;28;20029;-78
2022/08/25 17:58:38;;;;;;;5.30;3.07;;;;;;;24.99;46.65;100997.31;10442654;28;20060;-78
2022/08/25 18:03:38;;;;;;;5.70;2.40;;;;;;;24.62;50.70;100998.50;10441801;28;20124;-78
2022/08/25 18:08:40;;;;;;;6.33;4.70;;;;;;;24.28;53.73;100993.44;10441767;28;20124;-77
2022/08/25 18:13:41;;;;;;;5.15;2.80;;;;;;;23.91;53.54;100998.97;10457784;28;20079;-76
2022/08/25 18:18:43;;;;;;;4.97;2.53;;;;;;;23.64;54.20;100989.34;10473547;28;20029;-77
2022/08/25 18:23:43;;;;;;;4.20;2.80;;;;;;;23.51;52.01;100993.81;10473797;28;20457;-77
2022/08/25 18:28:44;;;;;;;6.60;2.70;;;;;;;23.30;51.72;100995.69;10424001;28;20033;-77
2022/08/25 18:33:44;;;;;;;3.93;2.87;;;;;;;23.08;52.63;100994.84;10439596;28;20053;-77
2022/08/25 18:44:05;;;;;;;4.90;2.40;;;;;;;22.48;55.18;101001.09;10439768;28;20033;-77
2022/08/25 18:49:05;;;;;;;6.00;2.57;;;;;;;22.27;57.30;101000.16;10450162;28;20044;-76
2022/08/25 18:54:06;;;;;;;4.18;2.85;;;;;;;22.15;55.69;101009.94;10435495;28;20048;-77
2022/08/25 18:59:07;;;;;;;10.70;4.27;;;;;;;22.05;55.25;101016.13;10425986;28;20392;-77
2022/08/25 19:04:07;;;;;;;5.00;3.53;;;;;;;21.90;56.48;101021.41;10440005;28;20569;-77
2022/08/25 19:09:08;;;;;;;11.02;3.25;;;;;;;21.83;57.18;101023.16;10432533;28;20037;-77
2022/08/25 19:14:10;;;;;;;5.53;3.35;;;;;;;21.69;58.60;101031.09;10400425;28;20049;-76
2022/08/25 19:19:11;;;;;;;10.82;3.55;;;;;;;21.53;58.04;101035.41;10386499;28;20135;-76
2022/08/25 19:24:13;;;;;;;23.00;5.00;;;;;;;21.48;60.37;101038.06;10408554;28;20045;-76
2022/08/25 19:29:15;;;;;;;;;;;;;;;21.35;60.04;101036.22;10401785;28;20128;-76
2022/08/25 19:34:24;;;;;;;5.55;3.45;;;;;;;21.21;60.94;101033.47;10399292;28;20296;-77
2022/08/25 19:39:24;;;;;;;7.78;3.15;;;;;;;21.04;60.59;101038.69;10410806;28;20052;-77
2022/08/25 19:44:25;;;;;;;5.60;3.78;;;;;;;20.90;61.02;101033.25;10441270;28;20060;-77
2022/08/25 19:49:28;;;;;;;8.65;4.38;;;;;;;20.75;60.29;101037.53;10443053;28;20515;-77
2022/08/25 19:54:31;;;;;;;7.85;7.05;;;;;;;20.57;61.21;101040.03;10450688;28;20044;-75
2022/08/25 19:59:33;;;;;;;7.65;4.57;;;;;;;20.38;61.18;101038.13;10462323;28;20043;-75
2022/08/25 20:04:34;;;;;;;4.88;3.35;;;;;;;20.29;61.18;101042.44;10454808;28;20877;-78
2022/08/25 20:09:34;;;;;;;5.68;4.00;;;;;;;20.19;62.36;101049.44;10458103;28;20051;-77
2022/08/25 20:14:35;;;;;;;6.72;3.63;;;;;;;20.05;62.69;101049.25;10438450;28;20064;-77
2022/08/25 20:19:35;;;;;;;7.20;3.78;;;;;;;19.95;63.35;101058.91;10440813;28;20039;-77
2022/08/25 20:24:49;;;;;;;14.30;8.98;;;;;;;20.13;61.53;101065.31;10468142;28;20407;-76
2022/08/25 20:29:51;;;;;;;8.52;5.93;;;;;;;20.32;61.27;101061.97;10446860;28;20522;-79
2022/08/25 20:34:52;;;;;;;9.02;5.82;;;;;;;20.40;60.61;101062.03;10426310;28;20106;-78
2022/08/25 20:39:53;;;;;;;15.85;6.03;;;;;;;20.56;60.93;101078.13;10441523;28;20090;-78
2022/08/25 20:44:54;;;;;;;10.60;6.45;;;;;;;20.73;62.47;101091.59;10455907;28;20085;-79
2022/08/25 20:49:57;;;;;;;13.48;7.75;;;;;;;20.87;63.48;101094.41;10441920;28;20042;-79
2022/08/25 20:54:57;;;;;;;10.07;7.88;;;;;;;21.00;64.71;101087.44;10433514;28;20040;-78
2022/08/25 20:59:58;;;;;;;15.45;9.18;;;;;;;21.18;66.33;101097.31;10423904;28;20037;-78
2022/08/25 21:04:59;;;;;;;14.45;12.18;;;;;;;21.13;67.49;101100.84;10434683;28;20032;-78
2022/08/25 21:09:59;;;;;;;15.38;12.63;;;;;;;21.00;68.91;101109.59;10449409;28;20060;-77
2022/08/25 21:15:00;;;;;;;26.30;21.00;;;;;;;21.03;72.43;101112.28;10446113;28;20055;-77
2022/08/25 21:20:03;;;;;;;33.50;27.52;;;;;;;21.20;74.54;101115.09;10457056;28;20101;-78
2022/08/25 21:25:06;;;;;;;32.05;27.65;;;;;;;21.29;74.71;101119.56;10466615;28;20041;-77
2022/08/25 21:30:08;;;;;;;34.97;31.40;;;;;;;21.26;75.33;101128.44;10458460;28;20068;-79
2022/08/25 21:35:09;;;;;;;43.27;37.93;;;;;;;21.21;76.45;101130.19;10465802;28;20039;-78
2022/08/25 21:40:09;;;;;;;48.83;43.08;;;;;;;21.16;77.67;101129.25;10442846;28;20072;-78
2022/08/25 21:45:10;;;;;;;56.90;48.17;;;;;;;21.15;78.56;101118.56;10444569;28;20493;-79
2022/08/25 21:50:11;;;;;;;54.13;47.63;;;;;;;21.00;79.26;101119.38;10473226;28;20072;-78
2022/08/25 21:55:12;;;;;;;59.40;50.88;;;;;;;20.83;80.64;101134.28;10458766;28;20036;-78
2022/08/25 22:00:13;;;;;;;64.10;52.72;;;;;;;20.79;81.26;101129.81;10444082;28;20041;-79
2022/08/25 22:05:14;;;;;;;54.60;48.70;;;;;;;20.64;82.03;101129.63;10473403;28;20079;-79
2022/08/25 22:10:15;;;;;;;60.13;52.38;;;;;;;20.61;82.86;101140.22;10442808;28;20049;-78
2022/08/25 22:15:16;;;;;;;70.10;59.13;;;;;;;20.58;83.44;101137.53;10479624;28;20052;-78
2022/08/25 22:20:16;;;;;;;69.10;56.78;;;;;;;20.45;84.04;101144.50;10453815;28;20044;-78
2022/08/25 22:25:17;;;;;;;68.43;57.05;;;;;;;20.35;85.08;101141.75;10424204;28;20033;-78
2022/08/25 22:30:18;;;;;;;59.88;53.42;;;;;;;20.31;85.79;101149.63;10452669;28;20420;-78
2022/08/25 22:35:19;;;;;;;68.10;56.28;;;;;;;20.23;86.49;101158.41;10440260;28;20044;-78
2022/08/25 22:40:20;;;;;;;62.50;55.77;;;;;;;20.04;87.45;101156.41;10463269;28;20179;-78
2022/08/25 22:45:20;;;;;;;64.05;56.95;;;;;;;19.90;88.54;101148.25;10439244;28;20328;-79
2022/08/25 22:50:21;;;;;;;78.53;58.95;;;;;;;19.84;89.27;101153.44;10478050;28;20123;-79
2022/08/25 22:55:21;;;;;;;62.10;53.40;;;;;;;19.76;89.87;101169.25;10466541;28;20067;-79
2022/08/25 23:00:22;;;;;;;67.38;59.17;;;;;;;19.77;90.34;101179.91;10463078;28;20037;-79
2022/08/25 23:05:22;;;;;;;60.05;53.08;;;;;;;19.72;90.74;101173.66;10471104;28;20044;-78
2022/08/25 23:10:24;;;;;;;61.70;49.35;;;;;;;19.64;90.84;101183.25;10464873;28;20083;-79
2022/08/25 23:15:24;;;;;;;72.88;56.60;;;;;;;19.57;91.84;101186.69;10478407;28;20380;-78
2022/08/25 23:25:44;;;;;;;58.10;46.80;;;;;;;19.37;92.82;101188.13;10455421;28;20127;-79
2022/08/25 23:30:46;;;;;;;59.50;47.05;;;;;;;19.27;94.12;101190.63;10490195;28;20404;-79
2022/08/25 23:35:48;;;;;;;60.97;48.23;;;;;;;19.16;94.61;101190.44;10482904;28;20032;-79